| time (UTC) | temp C | wind direction | speed KPH | gust KPH | rain 1hr cm | rain 24hr cm | rain mn cm | humidity % | barometer mb |
| 20260505231032 | 31 | 155 | 1.6 | 3.2 | 0.00 | 0.00 | 0.00 | 25 | 1014.0 |
| 20260505225532 | 30 | 31 | 1.6 | 6.4 | 0.00 | 0.00 | 0.00 | 24 | 1014.4 |
| 20260505224032 | 30 | 128 | 1.6 | 3.2 | 0.00 | 0.00 | 0.00 | 23 | 1014.5 |
| 20260505222532 | 31 | 101 | 0.0 | 1.6 | 0.00 | 0.00 | 0.00 | 25 | 1014.6 |
| 20260505221032 | 30 | 130 | 1.6 | 3.2 | 0.00 | 0.00 | 0.00 | 24 | 1015.0 |
| 20260505215532 | 30 | 84 | 4.8 | 6.4 | 0.00 | 0.00 | 0.00 | 24 | 1014.7 |
| 20260505214032 | 30 | 114 | 1.6 | 3.2 | 0.00 | 0.00 | 0.00 | 23 | 1015.0 |
| 20260505212532 | 30 | 151 | 0.0 | 1.6 | 0.00 | 0.00 | 0.00 | 25 | 1015.1 |
| 20260505211032 | 29 | 75 | 6.4 | 6.4 | 0.00 | 0.00 | 0.00 | 26 | 1015.2 |
| 20260505205532 | 30 | 99 | 1.6 | 1.6 | 0.00 | 0.00 | 0.00 | 29 | 1015.2 |
| 20260505204032 | 29 | 168 | 0.0 | 1.6 | 0.00 | 0.00 | 0.00 | 30 | 1015.1 |
| 20260505201033 | 28 | 198 | 3.2 | 4.8 | 0.00 | 0.00 | 0.00 | 30 | 1015.4 |
| 20260505195533 | 27 | 166 | 0.0 | 1.6 | 0.00 | 0.00 | 0.00 | 34 | 1015.6 |
| 20260505194032 | 27 | 173 | 3.2 | 4.8 | 0.00 | 0.00 | 0.00 | 35 | 1015.7 |
| 20260505192532 | 27 | 230 | 1.6 | 1.6 | 0.00 | 0.00 | 0.00 | 35 | 1015.8 |
| 20260505191032 | 27 | 246 | 3.2 | 4.8 | 0.00 | 0.00 | 0.00 | 34 | 1015.7 |
| 20260505185532 | 26 | 178 | 0.0 | 1.6 | 0.00 | 0.00 | 0.00 | 40 | 1015.8 |
| 20260505184032 | 25 | 192 | 0.0 | 1.6 | 0.00 | 0.00 | 0.00 | 40 | 1015.9 |
| 20260505182533 | 26 | 169 | 0.0 | 1.6 | 0.00 | 0.00 | 0.00 | 39 | 1016.1 |
| 20260505181032 | 25 | 173 | 0.0 | 0.0 | 0.00 | 0.00 | 0.00 | 39 | 1016.0 |
| 20260505175532 | 25 | 285 | 1.6 | 3.2 | 0.00 | 0.00 | 0.00 | 39 | 1015.9 |
| 20260505174032 | 25 | 201 | 0.0 | 1.6 | 0.00 | 0.00 | 0.00 | 42 | 1015.9 |
| 20260505172532 | 23 | 174 | 0.0 | 1.6 | 0.00 | 0.00 | 0.00 | 47 | 1015.9 |
| 20260505171033 | 23 | 206 | 1.6 | 3.2 | 0.00 | 0.00 | 0.00 | 47 | 1015.8 |
| 20260505165532 | 23 | 227 | 0.0 | 1.6 | 0.00 | 0.00 | 0.00 | 46 | 1015.6 |
| 20260505164032 | 22 | 189 | 0.0 | 1.6 | 0.00 | 0.00 | 0.00 | 49 | 1015.8 |
| 20260505162532 | 22 | 169 | 3.2 | 6.4 | 0.00 | 0.00 | 0.00 | 52 | 1015.7 |
| 20260505161032 | 21 | 168 | 1.6 | 3.2 | 0.00 | 0.00 | 0.00 | 56 | 1015.8 |
| 20260505152533 | 20 | 169 | 1.6 | 3.2 | 0.00 | 0.00 | 0.00 | 58 | 1015.4 |
| 20260505151033 | 19 | 219 | 1.6 | 4.8 | 0.00 | 0.00 | 0.00 | 60 | 1015.4 |
| 20260505124032 | 15 | 180 | 0.0 | 1.6 | 0.00 | 0.00 | 0.00 | 77 | 1013.4 |
| 20260505122532 | 15 | 190 | 0.0 | 1.6 | 0.00 | 0.00 | 0.00 | 78 | 1013.4 |
| 20260505121032 | 15 | 210 | 0.0 | 0.0 | 0.00 | 0.00 | 0.00 | 77 | 1013.3 |
| 20260505115532 | 15 | 211 | 0.0 | 0.0 | 0.00 | 0.00 | 0.00 | 75 | 1013.0 |
| 20260505114032 | 16 | 199 | 0.0 | 0.0 | 0.00 | 0.00 | 0.00 | 73 | 1012.9 |
| 20260505112532 | 16 | 218 | 1.6 | 1.6 | 0.00 | 0.00 | 0.00 | 72 | 1012.8 |
| 20260505111032 | 16 | 207 | 0.0 | 0.0 | 0.00 | 0.00 | 0.00 | 72 | 1012.5 |
| 20260505101032 | 16 | 188 | 0.0 | 0.0 | 0.00 | 0.00 | 0.00 | 72 | 1012.0 |
| 20260505095532 | 16 | 173 | 0.0 | 1.6 | 0.00 | 0.00 | 0.00 | 72 | 1012.2 |
| 20260505094032 | 16 | 186 | 0.0 | 1.6 | 0.00 | 0.00 | 0.00 | 70 | 1011.9 |
| 20260505092532 | 17 | 188 | 0.0 | 1.6 | 0.00 | 0.00 | 0.00 | 70 | 1011.8 |
| 20260505091032 | 16 | 179 | 0.0 | 1.6 | 0.00 | 0.00 | 0.00 | 70 | 1011.7 |
| 20260505085532 | 17 | 181 | 0.0 | 0.0 | 0.00 | 0.00 | 0.00 | 69 | 1011.9 |
| 20260505084032 | 17 | 193 | 1.6 | 3.2 | 0.00 | 0.00 | 0.00 | 69 | 1011.8 |
| 20260505082532 | 17 | 181 | 0.0 | 0.0 | 0.00 | 0.00 | 0.00 | 68 | 1011.7 |
| 20260505081032 | 17 | 179 | 0.0 | 0.0 | 0.00 | 0.00 | 0.00 | 66 | 1011.5 |
| 20260505075532 | 17 | 195 | 0.0 | 1.6 | 0.00 | 0.00 | 0.00 | 66 | 1011.3 |
| 20260505074032 | 17 | 152 | 0.0 | 0.0 | 0.00 | 0.00 | 0.00 | 66 | 1011.2 |
| 20260505072532 | 17 | 146 | 0.0 | 0.0 | 0.00 | 0.00 | 0.00 | 67 | 1011.1 |
| 20260505071032 | 17 | 170 | 0.0 | 0.0 | 0.00 | 0.00 | 0.00 | 67 | 1011.1 |
| 20260505065532 | 17 | 173 | 0.0 | 0.0 | 0.00 | 0.00 | 0.00 | 66 | 1010.8 |
| 20260505064032 | 17 | 180 | 0.0 | 1.6 | 0.00 | 0.00 | 0.00 | 65 | 1010.7 |
| 20260505062532 | 17 | 175 | 0.0 | 0.0 | 0.00 | 0.00 | 0.00 | 63 | 1010.7 |
| 20260505061032 | 18 | 179 | 0.0 | 0.0 | 0.00 | 0.00 | 0.00 | 63 | 1010.4 |
| 20260505055532 | 19 | 154 | 0.0 | 0.0 | 0.00 | 0.00 | 0.00 | 55 | 1010.1 |
| 20260505054032 | 20 | 186 | 0.0 | 0.0 | 0.00 | 0.00 | 0.00 | 54 | 1010.2 |
| 20260505052532 | 20 | 190 | 0.0 | 0.0 | 0.00 | 0.00 | 0.00 | 52 | 1010.1 |
| 20260505051032 | 20 | 187 | 0.0 | 1.6 | 0.00 | 0.00 | 0.00 | 52 | 1009.9 |
| 20260505041032 | 22 | 195 | 1.6 | 1.6 | 0.00 | 0.00 | 0.00 | 39 | 1009.6 |
| 20260505035532 | 22 | 182 | 0.0 | 1.6 | 0.00 | 0.00 | 0.00 | 40 | 1009.4 |
| 20260505034032 | 23 | 210 | 3.2 | 4.8 | 0.00 | 0.00 | 0.00 | 39 | 1009.2 |
| 20260505032532 | 25 | 173 | 0.0 | 1.6 | 0.00 | 0.00 | 0.00 | 33 | 1009.1 |
| 20260505031032 | 25 | 199 | 1.6 | 3.2 | 0.00 | 0.00 | 0.00 | 33 | 1009.2 |
| 20260505025532 | 26 | 167 | 0.0 | 1.6 | 0.00 | 0.00 | 0.00 | 29 | 1009.2 |
| 20260505024032 | 28 | 171 | 0.0 | 0.0 | 0.00 | 0.00 | 0.00 | 25 | 1009.2 |
| 20260505022533 | 28 | 132 | 0.0 | 0.0 | 0.00 | 0.00 | 0.00 | 26 | 1009.1 |
| 20260505021032 | 28 | 132 | 0.0 | 0.0 | 0.00 | 0.00 | 0.00 | 25 | 1009.1 |
| 20260505015532 | 27 | 140 | 0.0 | 0.0 | 0.00 | 0.00 | 0.00 | 26 | 1009.1 |
| 20260505014033 | 32 | 171 | 0.0 | 0.0 | 0.00 | 0.00 | 0.00 | 18 | 1009.3 |
| 20260505012532 | 31 | 54 | 1.6 | 3.2 | 0.00 | 0.00 | 0.00 | 19 | 1009.2 |
| 20260505011032 | 32 | 145 | 0.0 | 1.6 | 0.00 | 0.00 | 0.00 | 20 | 1009.3 |
| 20260505005532 | 32 | 172 | 1.6 | 1.6 | 0.00 | 0.00 | 0.00 | 20 | 1009.5 |
| 20260505004032 | 32 | 175 | 0.0 | 1.6 | 0.00 | 0.00 | 0.00 | 18 | 1009.5 |
| 20260505002532 | 33 | 200 | 0.0 | 1.6 | 0.00 | 0.00 | 0.00 | 19 | 1009.6 |
| 20260505001032 | 32 | 225 | 0.0 | 1.6 | 0.00 | 0.00 | 0.00 | 17 | 1009.5 |
| 20260504235532 | 33 | 192 | 0.0 | 1.6 | 0.00 | 0.00 | 0.00 | 21 | 1009.6 |
| 20260504234032 | 33 | 203 | 0.0 | 0.0 | 0.00 | 0.00 | 0.00 | 20 | 1009.6 |
| 20260504232532 | 33 | 156 | 0.0 | 0.0 | 0.00 | 0.00 | 0.00 | 20 | 1009.9 |